Time;durP1;ratioP1;P1;durP2;ratioP2;P2;SDS_P1;SDS_P2;PMS_P1;PMS_P2;Temp;Humidity;BMP_temperature;BMP_pressure;BME280_temperature;BME280_humidity;BME280_pressure;Samples;Min_cycle;Max_cycle;Signal;HPM_P1;HPM_P2
2023/03/17 00:01:25;;;;;;;15.80;7.30;;;-0.90;99.90;;;;;;5083671;28;20051;-74
2023/03/17 00:03:54;;;;;;;20.52;7.35;;;-0.90;99.90;;;;;;5068117;28;20067;-74
2023/03/17 00:06:28;;;;;;;19.27;8.25;;;-0.90;99.90;;;;;;5075180;28;20048;-74
2023/03/17 00:08:56;;;;;;;23.85;8.40;;;-1.00;99.90;;;;;;5089656;28;20082;-74
2023/03/17 00:11:25;;;;;;;28.98;9.15;;;-1.00;99.90;;;;;;5087084;28;20079;-74
2023/03/17 00:13:52;;;;;;;25.45;8.32;;;-1.00;99.90;;;;;;5088281;28;20110;-75
2023/03/17 00:16:24;;;;;;;26.23;7.65;;;-1.00;99.90;;;;;;5072641;28;20520;-74
2023/03/17 00:18:55;;;;;;;25.67;9.38;;;-1.00;99.90;;;;;;5079856;28;20052;-75
2023/03/17 00:21:30;;;;;;;25.75;8.70;;;-1.10;99.90;;;;;;5073323;28;20079;-74
2023/03/17 00:24:00;;;;;;;22.23;8.55;;;-1.10;99.90;;;;;;5059277;28;20055;-74
2023/03/17 00:26:30;;;;;;;24.73;8.70;;;-1.10;99.90;;;;;;5073612;28;20501;-74
2023/03/17 00:28:58;;;;;;;25.73;8.70;;;-1.10;99.90;;;;;;5056864;28;20043;-80
2023/03/17 00:31:28;;;;;;;26.02;9.05;;;-1.10;99.90;;;;;;5065893;28;20607;-80
2023/03/17 00:33:58;;;;;;;16.38;7.22;;;-1.20;99.90;;;;;;5058625;28;20045;-81
2023/03/17 00:36:29;;;;;;;15.00;6.85;;;-1.20;99.90;;;;;;5084176;28;20139;-81
2023/03/17 00:38:58;;;;;;;13.38;6.65;;;-1.20;99.90;;;;;;5041221;28;20186;-80
2023/03/17 00:41:28;;;;;;;17.65;6.50;;;-1.20;99.90;;;;;;5079118;28;20037;-81
2023/03/17 00:43:56;;;;;;;15.40;6.07;;;-1.10;99.90;;;;;;5082168;28;20420;-80
2023/03/17 00:46:27;;;;;;;16.17;5.85;;;-1.10;99.90;;;;;;5063498;28;20573;-80
2023/03/17 00:48:56;;;;;;;19.25;6.57;;;-1.20;99.90;;;;;;5082605;28;20055;-80
2023/03/17 00:51:24;;;;;;;26.80;7.55;;;-1.20;99.90;;;;;;5076945;28;20047;-80
2023/03/17 00:53:55;;;;;;;22.50;7.57;;;-1.20;99.90;;;;;;5070687;28;20413;-80
2023/03/17 00:56:23;;;;;;;22.00;7.00;;;-1.20;99.90;;;;;;5085436;28;20562;-81
2023/03/17 00:58:51;;;;;;;15.05;6.60;;;-1.20;99.90;;;;;;5091835;28;20500;-78
2023/03/17 01:01:18;;;;;;;21.23;7.93;;;-1.20;99.90;;;;;;5093119;28;20420;-80
2023/03/17 01:03:48;;;;;;;24.30;7.18;;;-1.20;99.90;;;;;;5058275;28;20048;-81
2023/03/17 01:06:17;;;;;;;20.60;7.88;;;-1.30;99.90;;;;;;5088312;28;20396;-80
2023/03/17 01:08:45;;;;;;;21.10;6.78;;;-1.30;99.90;;;;;;5056580;28;20051;-80
2023/03/17 01:11:17;;;;;;;23.00;7.90;;;-1.30;99.90;;;;;;5082835;28;20537;-81
2023/03/17 01:13:47;;;;;;;24.13;6.65;;;-1.30;99.90;;;;;;5048580;28;20123;-79
2023/03/17 01:16:15;;;;;;;18.80;6.65;;;-1.30;99.90;;;;;;5089657;28;20127;-80
2023/03/17 01:18:44;;;;;;;19.52;6.55;;;-1.30;99.90;;;;;;5075641;28;20048;-81
2023/03/17 01:21:14;;;;;;;29.90;7.00;;;-1.40;99.90;;;;;;5089066;28;20105;-79
2023/03/17 01:23:43;;;;;;;27.13;7.60;;;-1.40;99.90;;;;;;5083889;28;20133;-80
2023/03/17 01:26:10;;;;;;;19.95;6.50;;;-1.40;99.90;;;;;;5069280;28;20048;-80
2023/03/17 01:28:38;;;;;;;25.15;6.93;;;-1.30;99.90;;;;;;5088437;28;20056;-74
2023/03/17 01:31:05;;;;;;;22.42;6.93;;;-1.30;99.90;;;;;;5059527;28;20404;-75
2023/03/17 01:33:33;;;;;;;24.02;6.38;;;-1.30;99.90;;;;;;5087784;28;20420;-74
2023/03/17 01:36:04;;;;;;;21.13;6.78;;;-1.30;99.90;;;;;;5083467;28;20586;-75
2023/03/17 01:38:32;;;;;;;29.48;7.63;;;-1.30;99.90;;;;;;5073303;28;20574;-75
2023/03/17 01:41:02;;;;;;;30.70;7.00;;;-1.30;99.90;;;;;;5055095;28;20076;-74
2023/03/17 01:43:31;;;;;;;24.50;6.50;;;-1.40;99.90;;;;;;5077959;28;20052;-75
2023/03/17 01:46:28;;;;;;;24.48;7.07;;;-1.40;99.90;;;;;;5075527;28;20420;-75
2023/03/17 01:49:08;;;;;;;25.80;7.63;;;-1.50;99.90;;;;;;5088991;28;20471;-74
2023/03/17 01:51:43;;;;;;;21.58;7.35;;;-1.50;99.90;;;;;;5083124;28;20049;-75
2023/03/17 01:54:15;;;;;;;31.15;7.07;;;-1.50;99.90;;;;;;5079767;28;20558;-75
2023/03/17 01:56:50;;;;;;;41.22;14.23;;;-1.60;99.90;;;;;;5068873;28;20048;-74
2023/03/17 01:59:25;;;;;;;41.90;16.50;;;-1.60;99.90;;;;;;5060554;28;20512;-74
2023/03/17 02:01:59;;;;;;;38.38;12.57;;;-1.70;99.90;;;;;;5060395;28;20099;-75
2023/03/17 02:04:27;;;;;;;40.67;15.75;;;-1.80;99.90;;;;;;5070245;28;20055;-75
2023/03/17 02:06:58;;;;;;;48.33;18.05;;;-1.80;99.90;;;;;;5054886;28;20059;-75
2023/03/17 02:09:27;;;;;;;39.80;17.92;;;-1.70;99.90;;;;;;5076000;28;20040;-75
2023/03/17 02:11:57;;;;;;;38.00;14.88;;;-1.70;99.90;;;;;;5070582;28;20044;-74
2023/03/17 02:14:24;;;;;;;38.75;15.60;;;-1.70;99.90;;;;;;5053557;28;20048;-74
2023/03/17 02:16:52;;;;;;;41.35;15.35;;;-1.80;99.90;;;;;;5085205;28;20122;-74
2023/03/17 02:19:20;;;;;;;53.75;18.83;;;-1.80;99.90;;;;;;5058771;28;20044;-73
2023/03/17 02:21:52;;;;;;;47.85;21.15;;;-1.80;99.90;;;;;;5058545;28;20135;-75
2023/03/17 02:24:30;;;;;;;47.47;24.17;;;-1.80;99.90;;;;;;5053997;28;20055;-75
2023/03/17 02:27:05;;;;;;;43.92;20.20;;;-1.80;99.90;;;;;;5048597;28;20294;-75
2023/03/17 02:29:36;;;;;;;50.08;19.60;;;-1.90;99.90;;;;;;5082401;28;20083;-75
2023/03/17 02:32:05;;;;;;;45.50;19.63;;;-1.90;99.90;;;;;;5057428;28;20049;-75
2023/03/17 02:34:33;;;;;;;43.42;17.63;;;-2.00;99.90;;;;;;5087823;28;20052;-75
2023/03/17 02:37:06;;;;;;;34.33;15.73;;;-2.00;99.90;;;;;;5072719;28;20146;-75
2023/03/17 02:39:35;;;;;;;34.20;15.15;;;-2.00;99.90;;;;;;5089859;28;20067;-74
2023/03/17 02:42:03;;;;;;;31.25;13.35;;;-2.10;99.90;;;;;;5091148;28;20634;-74
2023/03/17 02:44:31;;;;;;;26.92;11.63;;;-2.20;99.90;;;;;;5088778;28;20138;-75
2023/03/17 02:47:00;;;;;;;26.75;12.57;;;-2.30;99.90;;;;;;5068333;28;20059;-75
2023/03/17 02:49:28;;;;;;;28.55;12.57;;;-2.30;99.90;;;;;;5081103;28;20052;-75
2023/03/17 02:51:56;;;;;;;29.33;11.60;;;-2.30;99.90;;;;;;5091032;28;20508;-75
2023/03/17 02:54:25;;;;;;;36.78;15.05;;;-2.30;99.90;;;;;;5080303;28;20052;-75
2023/03/17 02:56:52;;;;;;;33.78;13.10;;;-2.30;99.90;;;;;;5087500;28;20598;-75
2023/03/17 02:59:20;;;;;;;25.60;12.68;;;-2.40;99.90;;;;;;5057649;28;20044;-75
2023/03/17 03:01:49;;;;;;;34.10;12.98;;;-2.40;99.90;;;;;;5071173;28;20040;-75
2023/03/17 03:04:19;;;;;;;30.13;11.57;;;-2.40;99.90;;;;;;5072247;28;20043;-80
2023/03/17 03:06:47;;;;;;;31.08;13.10;;;-2.40;99.90;;;;;;5075839;28;20048;-81
2023/03/17 03:09:16;;;;;;;30.02;13.55;;;-2.40;99.90;;;;;;5089223;28;20056;-81
2023/03/17 03:11:46;;;;;;;37.92;14.50;;;-2.40;99.90;;;;;;5088689;28;20052;-82
2023/03/17 03:14:14;;;;;;;32.28;14.75;;;-2.40;99.90;;;;;;5087711;28;20052;-81
2023/03/17 03:16:42;;;;;;;38.53;14.48;;;-2.40;99.90;;;;;;5056114;28;20043;-81
2023/03/17 03:19:10;;;;;;;36.05;14.95;;;-2.40;99.90;;;;;;5089579;28;20068;-80
2023/03/17 03:21:38;;;;;;;35.60;16.98;;;-2.50;99.90;;;;;;5050766;28;20036;-79
2023/03/17 03:24:07;;;;;;;41.95;17.83;;;-2.50;99.90;;;;;;5071794;28;20057;-81
2023/03/17 03:26:35;;;;;;;40.53;18.90;;;-2.50;99.90;;;;;;5071116;28;20055;-81
2023/03/17 03:29:04;;;;;;;39.45;19.00;;;-2.40;99.90;;;;;;5062920;28;20062;-82
2023/03/17 03:31:35;;;;;;;40.47;17.42;;;-2.40;99.90;;;;;;5067320;28;20039;-82
2023/03/17 03:34:02;;;;;;;48.35;20.08;;;-2.40;99.90;;;;;;5054080;28;20063;-82
2023/03/17 03:36:31;;;;;;;36.58;19.05;;;-2.50;99.90;;;;;;5081101;28;20036;-80
2023/03/17 03:38:59;;;;;;;43.67;18.98;;;-2.50;99.90;;;;;;5088208;28;20044;-82
2023/03/17 03:41:27;;;;;;;52.35;18.10;;;-2.60;99.90;;;;;;5050823;28;20093;-82
2023/03/17 03:43:55;;;;;;;49.42;19.75;;;-2.60;99.90;;;;;;5070409;28;20093;-82
2023/03/17 03:46:25;;;;;;;44.28;18.13;;;-2.60;99.90;;;;;;5091101;28;20357;-80
2023/03/17 03:48:53;;;;;;;44.85;17.25;;;-2.60;99.90;;;;;;5075928;28;20051;-81
2023/03/17 03:51:21;;;;;;;47.05;18.30;;;-2.60;99.90;;;;;;5072252;28;20053;-79
2023/03/17 03:53:48;;;;;;;52.30;19.60;;;-2.70;99.90;;;;;;5092611;28;20087;-80
2023/03/17 03:56:16;;;;;;;41.92;18.85;;;-2.70;99.90;;;;;;5095741;28;20051;-80
2023/03/17 03:58:43;;;;;;;51.63;20.63;;;-2.70;99.90;;;;;;5083113;28;20535;-80
2023/03/17 04:01:11;;;;;;;51.13;19.35;;;-2.70;99.90;;;;;;5079507;28;20132;-81
2023/03/17 04:03:40;;;;;;;45.83;19.45;;;-2.70;99.90;;;;;;5086799;28;20059;-81
2023/03/17 04:06:07;;;;;;;40.45;16.73;;;-2.70;99.90;;;;;;5081864;28;20452;-81
2023/03/17 04:08:35;;;;;;;36.22;14.18;;;-2.70;99.90;;;;;;5079546;28;20044;-81
2023/03/17 04:11:02;;;;;;;47.20;18.77;;;-2.60;99.90;;;;;;5077157;28;20055;-82
2023/03/17 04:13:30;;;;;;;43.67;19.83;;;-2.60;99.90;;;;;;5086290;28;20044;-80
2023/03/17 04:15:57;;;;;;;40.00;19.55;;;-2.60;99.90;;;;;;5074851;28;20048;-79
2023/03/17 04:18:25;;;;;;;44.20;18.83;;;-2.60;99.90;;;;;;5090869;28;20058;-81
2023/03/17 04:20:54;;;;;;;50.50;20.20;;;-2.70;99.90;;;;;;5084562;28;20051;-78
2023/03/17 04:23:21;;;;;;;49.35;21.08;;;-2.70;99.90;;;;;;5067641;28;20142;-79
2023/03/17 04:25:50;;;;;;;47.80;20.30;;;-2.70;99.90;;;;;;5086041;28;20504;-78
2023/03/17 04:28:18;;;;;;;31.58;10.57;;;-2.70;99.90;;;;;;5089210;28;20043;-79
2023/03/17 04:30:46;;;;;;;45.90;20.80;;;-2.70;99.90;;;;;;5086459;28;20052;-79
2023/03/17 04:33:14;;;;;;;44.65;19.10;;;-2.70;99.90;;;;;;5094510;28;20086;-79
2023/03/17 04:35:42;;;;;;;49.30;19.27;;;-2.70;99.90;;;;;;5074190;28;20062;-79
2023/03/17 04:38:13;;;;;;;56.58;21.80;;;-2.60;99.90;;;;;;5094317;28;20044;-78
2023/03/17 04:40:41;;;;;;;46.63;18.98;;;-2.60;99.90;;;;;;5094482;28;20055;-78
2023/03/17 04:43:09;;;;;;;41.22;18.75;;;-2.60;99.90;;;;;;5056004;28;20074;-79
2023/03/17 04:45:37;;;;;;;55.95;19.75;;;-2.60;99.90;;;;;;5091557;28;20411;-79
2023/03/17 04:48:12;;;;;;;43.78;19.27;;;-2.50;99.90;;;;;;5092689;28;20060;-79
2023/03/17 04:50:41;;;;;;;52.15;20.20;;;-2.50;99.90;;;;;;5092028;28;20048;-80
2023/03/17 04:53:10;;;;;;;46.40;20.08;;;-2.60;99.90;;;;;;5074476;28;20043;-77
2023/03/17 04:55:37;;;;;;;52.38;20.42;;;-2.60;99.90;;;;;;5093902;28;20047;-77
2023/03/17 04:58:05;;;;;;;47.70;19.98;;;-2.60;99.90;;;;;;5091820;28;20043;-79
2023/03/17 05:00:37;;;;;;;49.13;20.42;;;-2.60;99.90;;;;;;5086072;28;20058;-78
2023/03/17 05:03:05;;;;;;;62.00;19.88;;;-2.60;99.90;;;;;;5090434;28;20507;-79
2023/03/17 05:05:33;;;;;;;51.05;18.75;;;-2.60;99.90;;;;;;5081694;28;20453;-79
2023/03/17 05:08:01;;;;;;;46.38;20.17;;;-2.60;99.90;;;;;;5090208;28;20063;-80
2023/03/17 05:10:30;;;;;;;28.02;12.85;;;-2.50;99.90;;;;;;5065727;28;20485;-79
2023/03/17 05:12:57;;;;;;;48.10;20.33;;;-2.50;99.90;;;;;;5071650;28;20154;-82
2023/03/17 05:15:25;;;;;;;47.97;21.02;;;-2.40;99.90;;;;;;5073107;28;20132;-83
2023/03/17 05:17:53;;;;;;;53.65;21.98;;;-2.40;99.90;;;;;;5075765;28;20183;-80
2023/03/17 05:20:20;;;;;;;27.52;11.07;;;-2.30;99.90;;;;;;5063540;28;20054;-78
2023/03/17 05:22:48;;;;;;;46.75;20.42;;;-2.30;99.90;;;;;;5076104;28;20052;-80
2023/03/17 05:25:16;;;;;;;34.80;12.65;;;-2.20;99.90;;;;;;5087557;28;20392;-80
2023/03/17 05:27:45;;;;;;;65.78;22.83;;;-2.10;99.90;;;;;;5088996;28;20063;-80
2023/03/17 05:30:14;;;;;;;73.53;22.95;;;-2.10;99.90;;;;;;5083329;28;20676;-79
2023/03/17 05:32:42;;;;;;;67.53;23.52;;;-2.10;99.90;;;;;;5080758;28;20598;-79
2023/03/17 05:35:10;;;;;;;74.30;23.70;;;-2.10;99.90;;;;;;5068971;28;20048;-78
2023/03/17 05:37:37;;;;;;;67.28;25.27;;;-2.00;99.90;;;;;;5067499;28;20070;-78
2023/03/17 05:40:07;;;;;;;74.85;23.30;;;-2.00;99.90;;;;;;5069722;28;20036;-78
2023/03/17 05:42:34;;;;;;;67.53;23.02;;;-2.00;99.90;;;;;;5068321;28;20621;-77
2023/03/17 05:45:04;;;;;;;58.38;21.98;;;-2.00;99.90;;;;;;5054982;28;20032;-78
2023/03/17 05:47:33;;;;;;;69.30;23.13;;;-2.00;99.90;;;;;;5081700;28;20039;-78
2023/03/17 05:50:01;;;;;;;72.28;24.85;;;-2.00;99.90;;;;;;5066149;28;20560;-78
2023/03/17 05:52:29;;;;;;;63.75;21.58;;;-1.90;99.90;;;;;;5091297;28;20052;-78
2023/03/17 05:54:57;;;;;;;67.18;22.48;;;-1.90;99.90;;;;;;5086939;28;20052;-78
2023/03/17 05:57:25;;;;;;;60.72;21.48;;;-1.80;99.90;;;;;;5052126;28;20496;-82
2023/03/17 05:59:53;;;;;;;65.65;21.80;;;-1.80;99.90;;;;;;5080664;28;20050;-78
2023/03/17 06:02:22;;;;;;;53.00;20.52;;;-1.80;99.90;;;;;;5091779;28;20492;-78
2023/03/17 06:04:51;;;;;;;56.83;19.88;;;-1.60;99.90;;;;;;5089572;28;20808;-79
2023/03/17 06:07:19;;;;;;;61.47;21.25;;;-1.60;99.90;;;;;;5082237;28;20072;-78
2023/03/17 06:09:49;;;;;;;58.15;20.35;;;-1.50;99.90;;;;;;5090489;28;20050;-78
2023/03/17 06:12:16;;;;;;;57.05;20.25;;;-1.50;99.90;;;;;;5056523;28;20056;-75
2023/03/17 06:14:44;;;;;;;53.75;19.10;;;-1.40;99.90;;;;;;5087677;28;20067;-78
2023/03/17 06:17:13;;;;;;;52.38;19.42;;;-1.30;99.90;;;;;;5089701;28;20058;-85
2023/03/17 06:19:42;;;;;;;57.65;19.63;;;-1.20;99.90;;;;;;5089414;28;20484;-80
2023/03/17 06:22:10;;;;;;;54.58;18.75;;;-1.10;99.90;;;;;;5083403;28;20058;-80
2023/03/17 06:24:37;;;;;;;30.38;14.07;;;-1.10;99.90;;;;;;5082770;28;20390;-80
2023/03/17 06:27:05;;;;;;;36.08;16.15;;;-0.90;99.90;;;;;;5075605;28;20485;-79
2023/03/17 06:29:33;;;;;;;38.50;15.82;;;-0.80;99.90;;;;;;5083095;28;20075;-80
2023/03/17 06:32:01;;;;;;;51.13;14.32;;;-0.60;99.90;;;;;;5089389;28;20052;-78
2023/03/17 06:34:28;;;;;;;34.25;14.88;;;-0.40;99.90;;;;;;5086169;28;20051;-78
2023/03/17 06:36:57;;;;;;;31.25;13.35;;;-0.30;99.90;;;;;;5070221;28;20525;-78
2023/03/17 06:39:25;;;;;;;37.78;15.40;;;-0.10;99.90;;;;;;5071071;28;20519;-78
2023/03/17 06:41:53;;;;;;;39.55;15.05;;;0.00;99.90;;;;;;5063175;28;20618;-77
2023/03/17 06:44:20;;;;;;;44.67;16.35;;;0.20;99.90;;;;;;5075063;28;20052;-78
2023/03/17 06:46:47;;;;;;;34.45;14.10;;;0.30;99.90;;;;;;5074177;28;20174;-78
2023/03/17 06:49:15;;;;;;;33.45;14.50;;;0.50;99.90;;;;;;5091519;28;20055;-76
2023/03/17 06:51:42;;;;;;;32.97;13.27;;;0.60;99.90;;;;;;5068026;28;20154;-76
2023/03/17 06:54:11;;;;;;;23.60;12.10;;;0.70;99.90;;;;;;5080030;28;20052;-77
2023/03/17 06:56:38;;;;;;;22.98;12.65;;;0.70;99.90;;;;;;5074065;28;20052;-78
2023/03/17 06:59:06;;;;;;;31.50;11.88;;;0.80;99.90;;;;;;5072344;28;20044;-77
2023/03/17 07:01:33;;;;;;;26.52;12.90;;;1.10;99.90;;;;;;5060315;28;20040;-77
2023/03/17 07:04:01;;;;;;;34.97;13.57;;;2.30;99.90;;;;;;5091142;28;20130;-77
2023/03/17 07:06:29;;;;;;;44.40;15.40;;;3.70;99.90;;;;;;5055164;28;20102;-77
2023/03/17 07:08:57;;;;;;;33.17;14.93;;;5.20;99.90;;;;;;5088536;28;20415;-78
2023/03/17 07:11:28;;;;;;;39.10;15.38;;;6.50;99.90;;;;;;5082413;28;20051;-78
2023/03/17 07:13:55;;;;;;;40.05;15.90;;;7.60;99.90;;;;;;5090373;28;20511;-78
2023/03/17 07:16:23;;;;;;;29.75;17.23;;;8.50;94.20;;;;;;5091298;28;20102;-78
2023/03/17 07:18:50;;;;;;;34.65;14.13;;;8.80;90.70;;;;;;5089251;28;20048;-78
2023/03/17 07:21:18;;;;;;;35.28;16.08;;;9.30;86.00;;;;;;5091130;28;20044;-79
2023/03/17 07:23:45;;;;;;;33.75;15.57;;;9.60;81.00;;;;;;5050941;28;20428;-79
2023/03/17 07:26:13;;;;;;;33.75;14.35;;;10.20;78.00;;;;;;5071269;28;20049;-79
2023/03/17 07:28:42;;;;;;;24.15;12.68;;;10.60;72.10;;;;;;5080154;28;20162;-79
2023/03/17 07:31:12;;;;;;;30.92;11.73;;;11.10;69.60;;;;;;5086475;28;20055;-79
2023/03/17 07:33:40;;;;;;;18.38;10.63;;;11.50;65.70;;;;;;5059580;28;20723;-80
2023/03/17 07:36:09;;;;;;;27.48;10.93;;;11.80;63.20;;;;;;5053339;28;20044;-79
2023/03/17 07:38:37;;;;;;;13.60;6.63;;;11.80;61.30;;;;;;5058191;28;20051;-80
2023/03/17 07:41:08;;;;;;;16.33;7.15;;;11.80;58.90;;;;;;5092703;28;20040;-79
2023/03/17 07:43:36;;;;;;;20.98;8.55;;;11.80;60.50;;;;;;5097960;28;20077;-79
2023/03/17 07:46:06;;;;;;;14.80;7.07;;;11.90;58.50;;;;;;5063524;28;20102;-79
2023/03/17 07:48:36;;;;;;;15.35;7.18;;;11.60;58.40;;;;;;5086842;28;20056;-80
2023/03/17 07:51:04;;;;;;;18.05;6.55;;;11.40;57.80;;;;;;5074125;28;20048;-79
2023/03/17 07:53:31;;;;;;;16.67;7.72;;;11.30;58.30;;;;;;5093766;28;20067;-78
2023/03/17 07:55:59;;;;;;;12.80;5.95;;;11.30;58.90;;;;;;5081205;28;20585;-79
2023/03/17 07:58:26;;;;;;;11.15;6.20;;;11.70;56.50;;;;;;5086035;28;20053;-78
2023/03/17 08:00:55;;;;;;;15.25;6.28;;;12.20;54.70;;;;;;5065852;28;20036;-79
2023/03/17 08:03:24;;;;;;;19.35;5.85;;;12.00;54.90;;;;;;5086810;28;20139;-79
2023/03/17 08:05:54;;;;;;;14.25;5.22;;;11.80;54.60;;;;;;5090048;28;20052;-79
2023/03/17 08:08:21;;;;;;;11.07;4.90;;;12.00;54.40;;;;;;5088766;28;20647;-80
2023/03/17 08:10:49;;;;;;;11.18;3.25;;;12.50;54.40;;;;;;5079395;28;20390;-78
2023/03/17 08:13:18;;;;;;;12.77;3.75;;;13.10;52.70;;;;;;5072033;28;20549;-78
2023/03/17 08:15:46;;;;;;;11.90;3.83;;;13.50;51.00;;;;;;5079430;28;20509;-78
2023/03/17 08:18:15;;;;;;;11.35;3.72;;;13.90;50.60;;;;;;5062055;28;20532;-78
2023/03/17 08:20:46;;;;;;;6.70;3.72;;;14.20;50.00;;;;;;5083241;28;20045;-78
2023/03/17 08:23:14;;;;;;;16.00;6.85;;;14.40;48.80;;;;;;5083681;28;20512;-78
2023/03/17 08:25:41;;;;;;;20.85;4.95;;;14.60;49.10;;;;;;5086089;28;20043;-78
2023/03/17 08:28:09;;;;;;;16.40;3.67;;;15.30;48.40;;;;;;5095974;28;20071;-80
2023/03/17 08:30:37;;;;;;;10.02;3.22;;;15.90;47.60;;;;;;5067136;28;20053;-80
2023/03/17 08:33:06;;;;;;;9.73;2.40;;;16.50;46.50;;;;;;5079059;28;20044;-80
2023/03/17 08:35:34;;;;;;;9.05;2.78;;;17.00;43.50;;;;;;5084284;28;20049;-80
2023/03/17 08:38:02;;;;;;;10.95;2.75;;;16.70;44.30;;;;;;5073510;28;20063;-80
2023/03/17 08:40:30;;;;;;;9.32;2.15;;;16.60;44.80;;;;;;5086458;28;20058;-79
2023/03/17 08:42:58;;;;;;;12.32;2.00;;;16.80;44.60;;;;;;5074009;28;20080;-80
2023/03/17 08:45:25;;;;;;;8.15;2.22;;;17.20;43.40;;;;;;5055656;28;20049;-80
2023/03/17 08:47:53;;;;;;;8.13;1.70;;;17.70;42.20;;;;;;5073456;28;20139;-79
2023/03/17 08:50:23;;;;;;;9.10;1.83;;;18.00;41.30;;;;;;5081729;28;20093;-80
2023/03/17 08:52:53;;;;;;;9.15;1.60;;;18.30;41.40;;;;;;5093326;28;20587;-79
2023/03/17 08:55:21;;;;;;;8.32;2.00;;;18.40;39.30;;;;;;5058761;28;20143;-80
2023/03/17 08:57:49;;;;;;;11.15;2.55;;;18.00;38.90;;;;;;5089011;28;20123;-78
2023/03/17 09:00:22;;;;;;;5.68;2.58;;;17.60;39.80;;;;;;5080226;28;20049;-79
2023/03/17 09:02:50;;;;;;;7.32;1.60;;;17.60;40.80;;;;;;5102701;28;20770;-78
2023/03/17 09:05:19;;;;;;;8.45;1.65;;;18.00;38.80;;;;;;5089477;28;20097;-79
2023/03/17 09:07:47;;;;;;;7.60;1.90;;;18.30;38.80;;;;;;5061933;28;20078;-79
2023/03/17 09:10:15;;;;;;;9.15;1.98;;;18.40;38.50;;;;;;5083010;28;20037;-80
2023/03/17 09:12:44;;;;;;;7.32;1.92;;;18.40;37.80;;;;;;5088596;28;20142;-79
2023/03/17 09:15:15;;;;;;;5.78;2.33;;;18.60;38.50;;;;;;5078536;28;20040;-79
2023/03/17 09:17:43;;;;;;;6.07;2.42;;;18.90;37.70;;;;;;5088139;28;20052;-80
2023/03/17 09:20:12;;;;;;;7.90;2.63;;;18.60;37.60;;;;;;5075872;28;20048;-80
2023/03/17 09:22:40;;;;;;;6.32;3.00;;;18.60;38.10;;;;;;5072072;28;20080;-80
2023/03/17 09:25:09;;;;;;;6.70;2.03;;;18.50;38.30;;;;;;5091637;28;20441;-80
2023/03/17 09:27:37;;;;;;;5.47;2.00;;;19.00;37.30;;;;;;5086477;28;20043;-85
2023/03/17 09:30:09;;;;;;;7.60;2.20;;;19.80;36.70;;;;;;5073014;28;20079;-84
2023/03/17 09:32:37;;;;;;;6.15;2.15;;;20.10;36.30;;;;;;5074261;28;20516;-83
2023/03/17 09:35:05;;;;;;;12.65;3.22;;;19.80;37.10;;;;;;5073747;28;20686;-80
2023/03/17 09:37:34;;;;;;;8.75;3.10;;;19.80;36.50;;;;;;5081500;28;20510;-82
2023/03/17 09:40:06;;;;;;;9.25;2.95;;;19.80;36.90;;;;;;5081808;28;20051;-84
2023/03/17 09:42:51;;;;;;;8.45;3.63;;;19.60;37.30;;;;;;5086693;28;20040;-84
2023/03/17 09:45:32;;;;;;;7.65;2.40;;;19.50;36.90;;;;;;5088380;28;20476;-83
2023/03/17 09:48:18;;;;;;;7.53;2.40;;;19.50;37.70;;;;;;5070784;28;20566;-83
2023/03/17 09:50:52;;;;;;;12.27;3.75;;;19.10;37.90;;;;;;5066521;28;20094;-85
2023/03/17 09:53:25;;;;;;;10.45;2.90;;;18.10;38.80;;;;;;5064412;28;20047;-83
2023/03/17 09:55:58;;;;;;;9.63;3.17;;;16.90;40.60;;;;;;5075731;28;20053;-84
2023/03/17 09:58:31;;;;;;;9.20;2.92;;;16.00;42.10;;;;;;5053577;28;20135;-84
2023/03/17 10:01:04;;;;;;;8.10;3.00;;;15.30;43.40;;;;;;5053984;28;20501;-83
2023/03/17 10:03:32;;;;;;;8.15;2.88;;;15.50;43.10;;;;;;5085203;28;20101;-84
2023/03/17 10:06:20;;;;;;;9.98;3.50;;;15.30;43.60;;;;;;5079756;28;20051;-84
2023/03/17 10:08:56;;;;;;;7.57;2.88;;;15.20;44.50;;;;;;5089073;28;20060;-84
2023/03/17 10:11:38;;;;;;;6.38;3.35;;;15.70;44.50;;;;;;5091981;28;20048;-81
2023/03/17 10:14:26;;;;;;;8.55;3.45;;;16.30;43.70;;;;;;5089907;28;20050;-82
2023/03/17 10:17:01;;;;;;;8.27;2.53;;;17.30;42.70;;;;;;5082501;28;20049;-82
2023/03/17 10:19:33;;;;;;;10.10;3.45;;;18.10;42.10;;;;;;5086381;28;20399;-82
2023/03/17 10:22:05;;;;;;;6.47;2.95;;;18.80;41.30;;;;;;5090175;28;20763;-81
2023/03/17 10:24:34;;;;;;;11.02;3.28;;;19.40;40.30;;;;;;5056333;28;20147;-82
2023/03/17 10:27:05;;;;;;;4.88;3.00;;;19.70;40.00;;;;;;5055740;28;20076;-80
2023/03/17 10:29:33;;;;;;;9.10;4.28;;;20.30;39.50;;;;;;5082937;28;20048;-82
2023/03/17 10:32:03;;;;;;;9.23;3.63;;;20.60;39.50;;;;;;5085363;28;20044;-81
2023/03/17 10:34:33;;;;;;;11.43;3.33;;;20.90;39.00;;;;;;5092570;28;20106;-81
2023/03/17 10:37:05;;;;;;;8.65;3.70;;;20.40;39.80;;;;;;5091049;28;20051;-86
2023/03/17 10:39:42;;;;;;;13.75;4.13;;;19.50;39.10;;;;;;5077814;28;20044;-85
2023/03/17 10:42:14;;;;;;;6.65;2.95;;;18.80;40.70;;;;;;5085341;28;20046;-84
2023/03/17 10:44:49;;;;;;;10.02;3.13;;;18.50;41.00;;;;;;5095790;28;20054;-83
2023/03/17 10:47:31;;;;;;;11.23;2.85;;;18.10;41.60;;;;;;5062363;28;20048;-83
2023/03/17 10:50:18;;;;;;;6.38;2.92;;;17.90;41.00;;;;;;5085223;28;20048;-83
2023/03/17 10:52:52;;;;;;;3.70;2.22;;;17.60;41.70;;;;;;5079333;28;20052;-83
2023/03/17 10:55:22;;;;;;;8.50;2.45;;;17.30;41.70;;;;;;5075694;28;20052;-81
2023/03/17 10:57:57;;;;;;;4.43;2.67;;;16.90;42.40;;;;;;5067775;28;20131;-81
2023/03/17 11:00:27;;;;;;;11.60;3.00;;;17.20;43.40;;;;;;5056361;28;20056;-83
2023/03/17 11:02:59;;;;;;;5.93;2.50;;;17.20;41.90;;;;;;5091357;28;20080;-82
2023/03/17 11:05:30;;;;;;;7.68;2.00;;;17.40;43.20;;;;;;5072424;28;20051;-81
2023/03/17 11:08:09;;;;;;;5.38;1.90;;;17.70;41.50;;;;;;5085584;28;20563;-81
2023/03/17 11:10:39;;;;;;;6.22;2.28;;;17.90;40.60;;;;;;5075361;28;20060;-81
2023/03/17 11:13:07;;;;;;;5.75;2.22;;;17.30;42.20;;;;;;5066526;28;20055;-83
2023/03/17 11:15:41;;;;;;;8.00;3.15;;;16.50;42.10;;;;;;5063251;28;20390;-82
2023/03/17 11:18:17;;;;;;;6.32;2.08;;;16.20;42.40;;;;;;5071456;28;20450;-83
2023/03/17 11:20:54;;;;;;;7.65;3.22;;;15.80;42.60;;;;;;5087450;28;20048;-83
2023/03/17 11:23:53;;;;;;;4.53;2.03;;;15.70;43.60;;;;;;5090450;28;20508;-81
2023/03/17 11:26:42;;;;;;;6.68;2.42;;;16.20;43.30;;;;;;5065786;28;20066;-85
2023/03/17 11:29:23;;;;;;;5.80;1.23;;;16.80;42.00;;;;;;5054996;28;20555;-81
2023/03/17 11:31:59;;;;;;;5.45;1.48;;;16.90;41.10;;;;;;5052165;28;20051;-81
2023/03/17 11:34:55;;;;;;;2.22;1.38;;;16.90;41.50;;;;;;5067001;28;20046;-83
2023/03/17 11:37:43;;;;;;;4.43;2.08;;;17.50;41.10;;;;;;5090236;28;20052;-81
2023/03/17 11:40:21;;;;;;;3.92;1.77;;;18.30;40.30;;;;;;5055611;28;20400;-82
2023/03/17 11:42:58;;;;;;;4.53;1.77;;;19.00;38.90;;;;;;5060248;28;20760;-83
2023/03/17 11:45:29;;;;;;;3.95;1.50;;;19.30;36.90;;;;;;5085938;28;20105;-81
2023/03/17 11:48:24;;;;;;;3.88;1.58;;;19.70;37.30;;;;;;5084289;28;20048;-82
2023/03/17 11:51:00;;;;;;;7.15;3.45;;;20.40;36.80;;;;;;5090414;28;20046;-82
2023/03/17 11:53:59;;;;;;;5.35;2.22;;;20.10;36.50;;;;;;5093587;28;20043;-82
2023/03/17 11:56:37;;;;;;;4.80;1.90;;;20.20;36.90;;;;;;5062104;28;20044;-81
2023/03/17 11:59:14;;;;;;;6.55;2.00;;;20.80;36.00;;;;;;5095849;28;20138;-81
2023/03/17 12:01:57;;;;;;;4.13;1.85;;;21.30;34.70;;;;;;5072023;28;20052;-79
2023/03/17 12:04:33;;;;;;;4.60;2.70;;;21.40;34.80;;;;;;5090916;28;20559;-80
2023/03/17 12:07:08;;;;;;;2.92;2.00;;;;;;;;;;5073890;28;20139;-83
2023/03/17 12:09:41;;;;;;;2.67;1.90;;;20.20;34.40;;;;;;5082051;28;20048;-83
2023/03/17 12:12:11;;;;;;;4.45;1.50;;;20.30;34.40;;;;;;5079110;28;20098;-83
2023/03/17 12:14:44;;;;;;;2.33;1.50;;;19.60;34.80;;;;;;5064331;28;20055;-83
2023/03/17 12:17:18;;;;;;;3.92;1.65;;;19.50;35.00;;;;;;5072523;28;20048;-84
2023/03/17 12:20:07;;;;;;;3.42;1.40;;;19.30;35.20;;;;;;5082666;28;20079;-84
2023/03/17 12:22:42;;;;;;;3.15;1.95;;;19.10;35.10;;;;;;5091317;28;20538;-82
2023/03/17 12:25:21;;;;;;;4.60;1.98;;;18.90;35.80;;;;;;5088139;28;20040;-81
2023/03/17 12:27:59;;;;;;;6.45;1.95;;;19.10;35.40;;;;;;5080348;28;20419;-82
2023/03/17 12:30:39;;;;;;;6.38;1.50;;;19.70;35.00;;;;;;5090480;28;20099;-81
2023/03/17 12:33:43;;;;;;;2.03;1.17;;;20.30;32.90;;;;;;5080801;28;20105;-84
2023/03/17 12:36:15;;;;;;;4.28;1.45;;;20.20;32.90;;;;;;5085569;28;20044;-84
2023/03/17 12:38:55;;;;;;;4.35;1.17;;;19.40;32.90;;;;;;5092306;28;20063;-86
2023/03/17 12:42:01;;;;;;;5.88;1.80;;;18.40;34.00;;;;;;5095043;28;20509;-81
2023/03/17 12:45:15;;;;;;;2.78;1.25;;;17.20;35.20;;;;;;5091298;28;20052;-84
2023/03/17 12:48:24;;;;;;;6.18;1.48;;;16.30;36.70;;;;;;5080253;28;20106;-82
2023/03/17 12:51:36;;;;;;;5.32;3.42;;;16.20;37.50;;;;;;5070706;28;20549;-84
2023/03/17 12:54:13;;;;;;;6.22;2.42;;;16.00;38.00;;;;;;5054983;28;20048;-82
2023/03/17 12:56:48;;;;;;;5.50;2.20;;;16.30;37.50;;;;;;5088501;28;20052;-81